Time;durP1;ratioP1;P1;durP2;ratioP2;P2;SDS_P1;SDS_P2;PMS_P1;PMS_P2;Temp;Humidity;BMP_temperature;BMP_pressure;BME280_temperature;BME280_humidity;BME280_pressure;Samples;Min_cycle;Max_cycle;Signal;HPM_P1;HPM_P2
2023/04/10 00:01:06;;;;;;;19.42;13.32;;;13.10;53.80;;;;;;5021745;28;20052;-64
2023/04/10 00:03:32;;;;;;;21.40;13.98;;;13.10;53.90;;;;;;5043168;28;20067;-64
2023/04/10 00:05:58;;;;;;;17.58;12.10;;;13.10;54.00;;;;;;5030983;28;20029;-64
2023/04/10 00:08:25;;;;;;;18.83;12.88;;;13.10;54.00;;;;;;5037391;28;20094;-64
2023/04/10 00:10:53;;;;;;;18.17;12.30;;;13.10;54.10;;;;;;5038235;28;20029;-64
2023/04/10 00:13:19;;;;;;;18.55;12.88;;;13.00;54.10;;;;;;5039668;28;20050;-64
2023/04/10 00:15:45;;;;;;;18.30;13.00;;;13.00;54.30;;;;;;5036123;28;20030;-65
2023/04/10 00:18:11;;;;;;;17.23;11.90;;;13.00;54.40;;;;;;5050638;28;20052;-64
2023/04/10 00:20:37;;;;;;;18.23;12.77;;;13.00;54.70;;;;;;5035051;28;20025;-64
2023/04/10 00:23:02;;;;;;;19.25;13.38;;;12.90;54.90;;;;;;5050882;28;20036;-64
2023/04/10 00:25:28;;;;;;;17.95;12.55;;;12.80;55.20;;;;;;5042425;28;20036;-64
2023/04/10 00:27:54;;;;;;;17.42;12.23;;;12.80;55.40;;;;;;5049527;28;20037;-64
2023/04/10 00:30:20;;;;;;;18.55;12.45;;;12.80;55.60;;;;;;5038979;28;20043;-64
2023/04/10 00:32:46;;;;;;;17.30;11.90;;;12.70;55.70;;;;;;5044614;28;20037;-64
2023/04/10 00:35:12;;;;;;;20.27;12.95;;;12.70;55.80;;;;;;5043830;28;20048;-64
2023/04/10 00:37:38;;;;;;;18.35;11.90;;;12.70;55.80;;;;;;5043513;28;20108;-64
2023/04/10 00:40:05;;;;;;;15.10;10.85;;;12.70;55.90;;;;;;5050058;28;20271;-64
2023/04/10 00:42:31;;;;;;;16.25;11.07;;;12.70;55.90;;;;;;5011061;28;20025;-64
2023/04/10 00:44:58;;;;;;;17.45;11.05;;;12.60;55.80;;;;;;5045588;28;20053;-64
2023/04/10 00:47:24;;;;;;;16.27;10.85;;;12.60;55.80;;;;;;5036450;28;20517;-64
2023/04/10 00:49:51;;;;;;;15.10;10.68;;;12.60;55.80;;;;;;5047256;28;20103;-65
2023/04/10 00:52:17;;;;;;;17.83;11.15;;;12.70;55.90;;;;;;5019387;28;20032;-65
2023/04/10 00:54:43;;;;;;;16.15;10.98;;;12.70;55.90;;;;;;5054553;28;20033;-65
2023/04/10 00:57:09;;;;;;;15.38;9.95;;;12.60;55.80;;;;;;5039620;28;20075;-64
2023/04/10 00:59:35;;;;;;;15.40;10.52;;;12.60;55.80;;;;;;5054505;28;20029;-64
2023/04/10 01:02:01;;;;;;;14.23;9.43;;;12.70;55.90;;;;;;5036504;28;20022;-64
2023/04/10 01:04:29;;;;;;;15.52;10.18;;;12.70;56.00;;;;;;5018467;28;20179;-64
2023/04/10 01:07:08;;;;;;;16.88;10.10;;;12.60;55.90;;;;;;5031775;28;20336;-65
2023/04/10 01:09:56;;;;;;;18.13;9.10;;;12.60;55.90;;;;;;4997620;28;20077;-65
2023/04/10 01:12:27;;;;;;;14.55;9.73;;;12.60;55.90;;;;;;5028678;28;20030;-65
2023/04/10 01:15:12;;;;;;;;;;;12.60;56.10;;;;;;5040491;28;20030;-65
2023/04/10 01:17:40;;;;;;;13.25;8.10;;;12.60;56.10;;;;;;5034543;28;19916;-65
2023/04/10 01:20:12;;;;;;;12.93;8.27;;;12.50;56.10;;;;;;5053089;28;20021;-64
2023/04/10 01:23:09;;;;;;;15.18;9.57;;;12.50;56.20;;;;;;5043227;28;20017;-64
2023/04/10 01:25:53;;;;;;;15.20;9.07;;;12.50;56.10;;;;;;5040662;28;20068;-64
2023/04/10 01:28:38;;;;;;;14.68;9.35;;;12.50;56.30;;;;;;5036207;28;20029;-62
2023/04/10 01:31:07;;;;;;;13.90;8.88;;;12.50;56.30;;;;;;5049957;28;20152;-63
2023/04/10 01:33:41;;;;;;;16.55;9.57;;;12.50;56.30;;;;;;5051163;28;20040;-63
2023/04/10 01:36:09;;;;;;;13.98;9.32;;;12.50;56.20;;;;;;5037256;28;20112;-63
2023/04/10 01:38:38;;;;;;;15.07;9.70;;;12.50;56.20;;;;;;5042838;28;20033;-63
2023/04/10 01:41:05;;;;;;;15.23;9.48;;;12.50;56.20;;;;;;5046721;28;20057;-63
2023/04/10 01:43:33;;;;;;;16.48;10.73;;;12.50;56.20;;;;;;5044524;28;20051;-63
2023/04/10 01:46:01;;;;;;;15.35;9.63;;;12.50;56.10;;;;;;5035399;28;20426;-63
2023/04/10 01:48:28;;;;;;;16.45;10.35;;;12.50;56.10;;;;;;5024001;28;20151;-63
2023/04/10 01:50:55;;;;;;;18.77;9.88;;;12.50;56.20;;;;;;5044752;28;20033;-63
2023/04/10 01:53:22;;;;;;;16.83;10.93;;;12.50;56.20;;;;;;5046964;28;20029;-63
2023/04/10 01:55:50;;;;;;;17.10;9.77;;;12.40;56.20;;;;;;5052502;28;20025;-63
2023/04/10 01:58:18;;;;;;;15.60;10.18;;;12.40;56.30;;;;;;5043885;28;20083;-63
2023/04/10 02:00:43;;;;;;;16.77;10.18;;;12.40;56.30;;;;;;5047532;28;20021;-63
2023/04/10 02:03:11;;;;;;;14.85;9.60;;;12.40;56.40;;;;;;5038253;28;20024;-63
2023/04/10 02:06:07;;;;;;;14.50;9.05;;;12.40;56.50;;;;;;5056146;28;20029;-63
2023/04/10 02:08:40;;;;;;;16.70;9.48;;;12.40;56.50;;;;;;5020947;28;20041;-63
2023/04/10 02:11:39;;;;;;;16.92;9.65;;;12.30;56.50;;;;;;5036112;28;20040;-63
2023/04/10 02:14:10;;;;;;;15.32;8.82;;;12.40;56.50;;;;;;5042850;28;20032;-63
2023/04/10 02:16:38;;;;;;;15.68;8.68;;;12.30;56.50;;;;;;5048465;28;20032;-63
2023/04/10 02:19:05;;;;;;;13.90;9.32;;;12.30;56.50;;;;;;5025446;28;20040;-63
2023/04/10 02:21:33;;;;;;;13.02;8.43;;;12.30;56.40;;;;;;5034587;28;20025;-63
2023/04/10 02:23:59;;;;;;;14.50;8.93;;;12.30;56.40;;;;;;5038891;28;20071;-63
2023/04/10 02:26:25;;;;;;;14.45;9.30;;;12.30;56.30;;;;;;5056369;28;20075;-63
2023/04/10 02:28:51;;;;;;;12.73;8.60;;;12.30;56.40;;;;;;5042624;28;20450;-63
2023/04/10 02:31:17;;;;;;;15.43;8.45;;;12.30;56.30;;;;;;5044985;28;20044;-63
2023/04/10 02:33:42;;;;;;;14.95;9.15;;;12.30;56.30;;;;;;5035100;28;20025;-62
2023/04/10 02:36:08;;;;;;;14.82;9.38;;;12.30;56.30;;;;;;5021841;28;20403;-63
2023/04/10 02:38:34;;;;;;;14.68;9.65;;;12.20;56.30;;;;;;5037983;28;20082;-63
2023/04/10 02:41:03;;;;;;;13.73;8.80;;;12.20;56.40;;;;;;5045743;28;20033;-63
2023/04/10 02:43:29;;;;;;;17.27;9.85;;;12.20;56.40;;;;;;5035291;28;20038;-63
2023/04/10 02:45:54;;;;;;;13.45;8.68;;;12.20;56.50;;;;;;5046959;28;20047;-63
2023/04/10 02:48:26;;;;;;;13.57;8.93;;;12.20;56.60;;;;;;5043197;28;20086;-64
2023/04/10 02:50:57;;;;;;;13.98;8.70;;;12.20;56.80;;;;;;5041406;28;20146;-63
2023/04/10 02:53:24;;;;;;;14.25;9.13;;;12.10;56.90;;;;;;5019799;28;20358;-63
2023/04/10 02:55:55;;;;;;;15.35;8.90;;;12.10;57.00;;;;;;5036925;28;20041;-63
2023/04/10 02:58:21;;;;;;;14.65;9.00;;;12.10;57.00;;;;;;5043390;28;20018;-63
2023/04/10 03:00:49;;;;;;;14.98;9.48;;;12.00;57.00;;;;;;5042892;28;20362;-64
2023/04/10 03:03:33;;;;;;;12.65;8.25;;;12.00;57.20;;;;;;5043337;28;20171;-64
2023/04/10 03:05:59;;;;;;;14.65;9.10;;;11.90;57.10;;;;;;5034822;28;20080;-64
2023/04/10 03:08:29;;;;;;;12.88;8.82;;;11.90;57.10;;;;;;5037865;28;20026;-63
2023/04/10 03:10:56;;;;;;;13.98;8.98;;;11.90;57.30;;;;;;5043409;28;20036;-63
2023/04/10 03:13:24;;;;;;;17.30;10.55;;;11.90;57.40;;;;;;5046497;28;20454;-63
2023/04/10 03:15:50;;;;;;;13.82;8.57;;;11.90;57.40;;;;;;5034017;28;20064;-63
2023/04/10 03:18:16;;;;;;;14.10;9.10;;;11.80;57.50;;;;;;5038829;28;20320;-63
2023/04/10 03:20:44;;;;;;;14.00;8.85;;;11.80;57.50;;;;;;5049210;28;20392;-63
2023/04/10 03:23:10;;;;;;;14.45;9.07;;;11.80;57.60;;;;;;5006880;28;20037;-64
2023/04/10 03:25:36;;;;;;;14.98;9.80;;;11.80;57.60;;;;;;5034992;28;20450;-63
2023/04/10 03:28:04;;;;;;;15.95;10.75;;;11.80;57.60;;;;;;5053283;28;20366;-63
2023/04/10 03:30:30;;;;;;;16.25;10.77;;;11.80;57.70;;;;;;5034377;28;20429;-64
2023/04/10 03:32:56;;;;;;;14.75;9.73;;;11.80;57.70;;;;;;5052974;28;20052;-64
2023/04/10 03:35:22;;;;;;;15.43;10.40;;;11.80;57.80;;;;;;5036843;28;20026;-63
2023/04/10 03:37:48;;;;;;;16.23;10.68;;;11.70;57.90;;;;;;5040184;28;20068;-64
2023/04/10 03:40:14;;;;;;;15.23;9.52;;;11.70;58.00;;;;;;5050276;28;20031;-63
2023/04/10 03:42:40;;;;;;;16.50;10.88;;;11.70;58.20;;;;;;5053866;28;20025;-63
2023/04/10 03:45:06;;;;;;;16.83;11.35;;;11.70;58.30;;;;;;5043856;28;20086;-63
2023/04/10 03:47:33;;;;;;;17.52;12.25;;;11.60;58.40;;;;;;5042972;28;20036;-63
2023/04/10 03:50:01;;;;;;;18.90;12.18;;;11.60;58.50;;;;;;5047548;28;20025;-63
2023/04/10 03:52:34;;;;;;;18.33;11.60;;;11.50;58.50;;;;;;5044623;28;20091;-63
2023/04/10 03:55:00;;;;;;;16.30;11.77;;;11.50;58.60;;;;;;5038106;28;20033;-63
2023/04/10 03:57:27;;;;;;;18.38;12.68;;;11.50;58.80;;;;;;5035979;28;20045;-64
2023/04/10 03:59:59;;;;;;;16.67;12.02;;;11.40;58.90;;;;;;5042255;28;20117;-63
2023/04/10 04:02:29;;;;;;;17.75;12.05;;;11.40;59.10;;;;;;5035061;28;20028;-63
2023/04/10 04:04:55;;;;;;;19.33;12.60;;;11.40;59.20;;;;;;5039104;28;20033;-63
2023/04/10 04:07:40;;;;;;;18.20;12.20;;;11.30;59.30;;;;;;5027644;28;20079;-63
2023/04/10 04:10:28;;;;;;;18.63;11.98;;;11.30;59.50;;;;;;5044786;28;20075;-63
2023/04/10 04:13:12;;;;;;;17.02;11.65;;;11.20;59.60;;;;;;5044676;28;20062;-63
2023/04/10 04:15:58;;;;;;;19.20;12.02;;;11.20;59.70;;;;;;5032096;28;20041;-63
2023/04/10 04:18:59;;;;;;;18.73;11.95;;;11.20;59.80;;;;;;5066231;28;20029;-63
2023/04/10 04:21:30;;;;;;;17.83;11.20;;;11.10;59.80;;;;;;5034784;28;20037;-63
2023/04/10 04:24:16;;;;;;;17.15;11.85;;;11.10;59.90;;;;;;5029549;28;20538;-63
2023/04/10 04:27:04;;;;;;;17.88;11.93;;;11.10;60.00;;;;;;5044194;28;20041;-63
2023/04/10 04:29:46;;;;;;;;;;;11.00;60.10;;;;;;5022674;28;20431;-63
2023/04/10 04:32:21;;;;;;;17.90;11.82;;;11.00;60.10;;;;;;5015618;28;19955;-63
2023/04/10 04:35:16;;;;;;;20.35;12.05;;;11.00;60.20;;;;;;5020778;28;20050;-63
2023/04/10 04:38:05;;;;;;;16.85;11.10;;;11.00;60.30;;;;;;5029011;28;20021;-63
2023/04/10 04:40:34;;;;;;;16.83;11.32;;;11.00;60.40;;;;;;5035593;28;20414;-63
2023/04/10 04:43:25;;;;;;;;;;;11.00;60.60;;;;;;5038994;28;20120;-63
2023/04/10 04:46:14;;;;;;;16.23;10.95;;;10.90;60.50;;;;;;5020928;28;19959;-63
2023/04/10 04:49:12;;;;;;;16.23;10.68;;;10.90;60.60;;;;;;5004878;28;20375;-63
2023/04/10 04:51:57;;;;;;;16.35;11.30;;;10.90;60.80;;;;;;5018973;28;20401;-63
2023/04/10 04:54:36;;;;;;;18.92;11.80;;;10.90;60.70;;;;;;5007678;28;20117;-64
2023/04/10 04:57:14;;;;;;;18.88;11.55;;;10.90;60.70;;;;;;5033206;28;20099;-64
2023/04/10 05:00:09;;;;;;;15.85;10.77;;;10.90;60.70;;;;;;5049275;28;20120;-63
2023/04/10 05:03:01;;;;;;;15.05;9.60;;;10.90;60.70;;;;;;5031824;28;20459;-64
2023/04/10 05:05:27;;;;;;;16.58;10.98;;;11.00;60.50;;;;;;5030265;28;20087;-63
2023/04/10 05:08:31;;;;;;;14.88;10.00;;;11.00;60.20;;;;;;4987257;28;20070;-64
2023/04/10 05:11:04;;;;;;;15.50;9.95;;;11.00;60.00;;;;;;4997213;28;20410;-64
2023/04/10 05:13:48;;;;;;;15.10;9.35;;;11.10;59.80;;;;;;5014484;28;20076;-64
2023/04/10 05:16:31;;;;;;;16.42;10.38;;;11.10;59.60;;;;;;5017610;28;20028;-63
2023/04/10 05:19:09;;;;;;;15.38;10.45;;;11.20;59.50;;;;;;5032475;28;20099;-65
2023/04/10 05:21:55;;;;;;;16.77;10.32;;;11.20;59.40;;;;;;5034335;28;20049;-65
2023/04/10 05:24:40;;;;;;;15.75;10.45;;;11.20;59.40;;;;;;5038814;28;20417;-64
2023/04/10 05:27:22;;;;;;;17.85;11.27;;;11.30;59.40;;;;;;5035957;28;20418;-65
2023/04/10 05:29:57;;;;;;;17.73;11.30;;;11.30;59.40;;;;;;5047882;28;20056;-65
2023/04/10 05:32:52;;;;;;;16.42;11.00;;;11.20;59.40;;;;;;5031011;28;20017;-64
2023/04/10 05:35:41;;;;;;;19.70;10.82;;;11.30;59.50;;;;;;5044387;28;20037;-64
2023/04/10 05:38:20;;;;;;;17.13;11.07;;;11.30;59.40;;;;;;5032578;28;20446;-64
2023/04/10 05:41:08;;;;;;;16.33;10.95;;;11.30;60.10;;;;;;5027580;28;20042;-64
2023/04/10 05:43:36;;;;;;;16.40;11.68;;;11.30;59.50;;;;;;5035263;28;20107;-64
2023/04/10 05:46:23;;;;;;;15.27;10.50;;;11.30;59.40;;;;;;5047904;28;20117;-64
2023/04/10 05:49:04;;;;;;;16.52;10.95;;;11.40;59.50;;;;;;5052810;28;20025;-64
2023/04/10 05:51:53;;;;;;;16.20;10.93;;;11.40;59.50;;;;;;5026253;28;20025;-64
2023/04/10 05:54:47;;;;;;;16.65;10.75;;;11.40;59.50;;;;;;5028700;28;20507;-64
2023/04/10 05:57:31;;;;;;;15.85;10.68;;;11.50;59.50;;;;;;5053904;28;20477;-65
2023/04/10 06:00:19;;;;;;;16.23;10.93;;;11.50;59.50;;;;;;5040386;28;20120;-64
2023/04/10 06:03:04;;;;;;;15.43;10.20;;;11.50;59.40;;;;;;5054071;28;20094;-64
2023/04/10 06:05:31;;;;;;;14.63;10.50;;;11.60;59.30;;;;;;5052963;28;20388;-64
2023/04/10 06:08:01;;;;;;;15.52;11.07;;;11.70;59.20;;;;;;5031911;28;20466;-64
2023/04/10 06:10:29;;;;;;;15.75;10.57;;;11.80;59.00;;;;;;5048227;28;20044;-64
2023/04/10 06:12:56;;;;;;;17.70;11.15;;;11.90;58.80;;;;;;5016715;28;20022;-64
2023/04/10 06:15:22;;;;;;;16.65;10.65;;;11.90;58.50;;;;;;5036369;28;20116;-64
2023/04/10 06:17:48;;;;;;;14.98;10.48;;;12.00;58.40;;;;;;5032775;28;20097;-64
2023/04/10 06:20:14;;;;;;;15.50;9.82;;;12.10;58.30;;;;;;5042081;28;20545;-64
2023/04/10 06:22:40;;;;;;;16.35;10.98;;;12.30;58.00;;;;;;5029576;28;20021;-64
2023/04/10 06:25:06;;;;;;;16.58;10.55;;;12.40;57.60;;;;;;5042896;28;20028;-64
2023/04/10 06:27:34;;;;;;;15.05;9.85;;;12.60;57.40;;;;;;5013458;28;20097;-64
2023/04/10 06:30:00;;;;;;;13.38;9.02;;;12.70;57.00;;;;;;5018448;28;20120;-63
2023/04/10 06:32:26;;;;;;;15.20;9.88;;;12.90;56.80;;;;;;5028202;28;20115;-64
2023/04/10 06:34:52;;;;;;;15.77;9.82;;;13.00;56.60;;;;;;5031182;28;20172;-64
2023/04/10 06:37:18;;;;;;;14.85;9.90;;;13.10;56.40;;;;;;5030283;28;20033;-64
2023/04/10 06:39:43;;;;;;;14.75;9.48;;;13.10;56.20;;;;;;5031828;28;20045;-65
2023/04/10 06:42:09;;;;;;;16.85;9.80;;;13.20;56.10;;;;;;5016768;28;20105;-64
2023/04/10 06:44:52;;;;;;;13.43;8.73;;;13.30;56.10;;;;;;5033068;28;20060;-64
2023/04/10 06:47:18;;;;;;;15.30;9.43;;;13.40;56.00;;;;;;5031031;28;20411;-65
2023/04/10 06:49:43;;;;;;;13.63;9.23;;;13.40;55.80;;;;;;5031219;28;20129;-65
2023/04/10 06:52:10;;;;;;;13.25;9.07;;;13.50;55.80;;;;;;5034620;28;20029;-65
2023/04/10 06:54:35;;;;;;;14.48;8.85;;;13.50;55.70;;;;;;5034702;28;20485;-65
2023/04/10 06:57:02;;;;;;;14.32;9.40;;;13.50;55.70;;;;;;5035027;28;20025;-65
2023/04/10 06:59:28;;;;;;;14.02;8.55;;;13.50;55.60;;;;;;5033077;28;20080;-65
2023/04/10 07:01:53;;;;;;;13.63;8.95;;;13.50;55.60;;;;;;5033632;28;20065;-65
2023/04/10 07:04:19;;;;;;;13.05;8.82;;;13.50;55.60;;;;;;5036292;28;20028;-65
2023/04/10 07:06:45;;;;;;;13.75;8.40;;;13.60;55.60;;;;;;5034537;28;20450;-65
2023/04/10 07:09:11;;;;;;;14.25;9.27;;;13.60;55.60;;;;;;5035522;28;20034;-65
2023/04/10 07:11:37;;;;;;;12.82;8.45;;;13.60;55.40;;;;;;5033761;28;20469;-65
2023/04/10 07:14:02;;;;;;;11.95;7.43;;;13.70;55.30;;;;;;5034079;28;20022;-65
2023/04/10 07:16:28;;;;;;;12.43;7.78;;;13.70;55.20;;;;;;5039670;28;20037;-65
2023/04/10 07:18:54;;;;;;;12.15;8.57;;;13.90;55.10;;;;;;5042721;28;22866;-65
2023/04/10 07:21:20;;;;;;;11.65;7.78;;;13.90;55.00;;;;;;5039569;28;20025;-65
2023/04/10 07:23:46;;;;;;;12.70;8.10;;;13.90;54.80;;;;;;5045895;28;20028;-66
2023/04/10 07:26:12;;;;;;;13.63;8.48;;;14.00;54.70;;;;;;5039973;28;20362;-65
2023/04/10 07:28:39;;;;;;;11.05;7.32;;;14.10;54.40;;;;;;5043131;28;20449;-66
2023/04/10 07:31:06;;;;;;;13.18;7.63;;;14.20;54.30;;;;;;5044419;28;20029;-65
2023/04/10 07:33:32;;;;;;;12.27;7.85;;;14.10;54.20;;;;;;5040710;28;20056;-65
2023/04/10 07:35:58;;;;;;;13.50;8.00;;;14.20;54.20;;;;;;5049601;28;20025;-65
2023/04/10 07:38:24;;;;;;;11.93;7.57;;;14.10;54.40;;;;;;5038154;28;20460;-66
2023/04/10 07:40:59;;;;;;;14.38;7.85;;;14.10;54.20;;;;;;5024473;28;20078;-66
2023/04/10 07:43:25;;;;;;;11.07;7.07;;;14.20;54.30;;;;;;5032371;28;20053;-66
2023/04/10 07:45:51;;;;;;;12.25;7.68;;;14.10;54.20;;;;;;5017661;28;20029;-66
2023/04/10 07:48:17;;;;;;;13.65;8.02;;;14.10;54.10;;;;;;5034665;28;20029;-64
2023/04/10 07:50:43;;;;;;;13.05;6.93;;;14.30;54.20;;;;;;5033255;28;20021;-65
2023/04/10 07:53:09;;;;;;;10.63;6.45;;;14.40;54.00;;;;;;5032804;28;20033;-64
2023/04/10 07:55:43;;;;;;;11.40;7.32;;;14.50;53.90;;;;;;5034510;28;20040;-64
2023/04/10 07:58:10;;;;;;;11.68;7.30;;;14.60;53.70;;;;;;4998538;28;20049;-64
2023/04/10 08:00:36;;;;;;;11.27;7.10;;;14.70;53.50;;;;;;5016846;28;20442;-64
2023/04/10 08:03:04;;;;;;;11.73;7.25;;;14.80;53.40;;;;;;5033364;28;20047;-64
2023/04/10 08:05:31;;;;;;;12.15;7.38;;;14.80;53.20;;;;;;5035435;28;20029;-64
2023/04/10 08:07:56;;;;;;;11.00;7.22;;;14.90;53.20;;;;;;5034039;28;20451;-64
2023/04/10 08:10:22;;;;;;;12.07;6.68;;;14.90;53.00;;;;;;5045922;28;20442;-64
2023/04/10 08:12:48;;;;;;;11.02;6.55;;;15.10;52.80;;;;;;5037056;28;20060;-64
2023/04/10 08:15:14;;;;;;;9.85;6.40;;;15.40;52.40;;;;;;5045382;28;20059;-65
2023/04/10 08:17:40;;;;;;;11.90;6.57;;;15.60;52.00;;;;;;5041394;28;20049;-65
2023/04/10 08:20:06;;;;;;;11.50;6.88;;;15.90;51.60;;;;;;5055286;28;20025;-64
2023/04/10 08:22:32;;;;;;;10.43;6.60;;;16.20;51.20;;;;;;5042926;28;20032;-65
2023/04/10 08:24:58;;;;;;;10.90;7.20;;;16.50;50.80;;;;;;5029161;28;20368;-65
2023/04/10 08:27:23;;;;;;;11.82;6.60;;;16.70;50.30;;;;;;5032532;28;20021;-64
2023/04/10 08:29:49;;;;;;;8.95;5.38;;;16.80;49.80;;;;;;5038003;28;20032;-65
2023/04/10 08:32:15;;;;;;;10.32;6.32;;;16.80;49.40;;;;;;5046593;28;20056;-65
2023/04/10 08:34:41;;;;;;;10.13;6.30;;;16.90;49.30;;;;;;5032250;28;20029;-64
2023/04/10 08:37:08;;;;;;;9.48;5.68;;;16.80;49.20;;;;;;5044453;28;20067;-64
2023/04/10 08:39:37;;;;;;;10.05;6.55;;;16.70;49.10;;;;;;5047531;28;20120;-64
2023/04/10 08:42:05;;;;;;;10.15;6.40;;;16.50;49.10;;;;;;5015626;28;20021;-64
2023/04/10 08:44:31;;;;;;;11.65;6.35;;;16.40;49.20;;;;;;5036728;28;20029;-64
2023/04/10 08:46:59;;;;;;;10.23;6.32;;;16.40;49.20;;;;;;5054132;28;20484;-64
2023/04/10 08:49:45;;;;;;;9.45;5.75;;;16.30;49.20;;;;;;5046710;28;20112;-64
2023/04/10 08:52:20;;;;;;;9.93;6.43;;;16.20;49.40;;;;;;5049361;28;20489;-64
2023/04/10 08:54:49;;;;;;;9.43;5.97;;;16.20;49.30;;;;;;5032527;28;20033;-64
2023/04/10 08:57:19;;;;;;;10.32;5.60;;;16.20;49.30;;;;;;5039166;28;20028;-64
2023/04/10 08:59:52;;;;;;;10.00;6.22;;;16.20;49.30;;;;;;5036293;28;20045;-64
2023/04/10 09:02:19;;;;;;;8.82;5.18;;;16.30;49.20;;;;;;5032476;28;20064;-64
2023/04/10 09:04:50;;;;;;;10.32;6.40;;;16.30;49.00;;;;;;5046997;28;20417;-64
2023/04/10 09:07:16;;;;;;;;;;;16.40;48.90;;;;;;5029561;28;20443;-64
2023/04/10 09:09:42;;;;;;;9.07;5.20;;;16.40;49.10;;;;;;5038347;28;20042;-64
2023/04/10 09:12:09;;;;;;;9.15;5.53;;;16.40;49.00;;;;;;5051814;28;20112;-66
2023/04/10 09:14:35;;;;;;;11.55;6.30;;;16.50;49.00;;;;;;5041543;28;20369;-64
2023/04/10 09:17:16;;;;;;;9.63;6.20;;;16.50;48.90;;;;;;5053409;28;20029;-64
2023/04/10 09:19:51;;;;;;;10.05;6.18;;;16.40;48.70;;;;;;5032174;28;20029;-66
2023/04/10 09:22:17;;;;;;;9.02;5.75;;;16.40;48.80;;;;;;5047442;28;20029;-64
2023/04/10 09:24:45;;;;;;;9.10;5.75;;;16.20;48.80;;;;;;5036131;28;20104;-64
2023/04/10 09:27:31;;;;;;;11.18;5.72;;;16.20;49.10;;;;;;5044901;28;20036;-64
2023/04/10 09:29:57;;;;;;;15.73;5.85;;;16.20;49.10;;;;;;5031546;28;20116;-64
2023/04/10 09:32:38;;;;;;;10.10;5.78;;;16.10;49.10;;;;;;5037257;28;20029;-64
2023/04/10 09:35:04;;;;;;;10.13;5.90;;;16.20;49.10;;;;;;5039912;28;20064;-63
2023/04/10 09:37:34;;;;;;;9.65;5.90;;;16.20;49.10;;;;;;5044878;28;20029;-64
2023/04/10 09:40:02;;;;;;;9.18;5.47;;;16.20;49.00;;;;;;5031569;28;20029;-64
2023/04/10 09:42:31;;;;;;;9.63;5.97;;;16.30;49.10;;;;;;5032675;28;20358;-64
2023/04/10 09:44:57;;;;;;;9.32;5.30;;;16.30;49.00;;;;;;5037420;28;20435;-64
2023/04/10 09:47:23;;;;;;;9.57;6.22;;;16.20;49.00;;;;;;5037754;28;20034;-64
2023/04/10 09:49:55;;;;;;;10.18;5.90;;;16.10;49.20;;;;;;5048388;28;20036;-64
2023/04/10 09:52:25;;;;;;;;;;;16.10;49.30;;;;;;5043076;28;20025;-67
2023/04/10 09:55:14;;;;;;;10.00;5.75;;;16.00;49.60;;;;;;5045992;28;19915;-64
2023/04/10 09:57:40;;;;;;;10.85;5.30;;;15.90;49.80;;;;;;5035331;28;20072;-64
2023/04/10 10:00:08;;;;;;;10.18;6.45;;;15.80;49.90;;;;;;5040508;28;20021;-64
2023/04/10 10:02:39;;;;;;;10.27;6.20;;;15.80;50.20;;;;;;5043315;28;20385;-65
2023/04/10 10:05:05;;;;;;;10.00;6.22;;;15.70;50.30;;;;;;5053228;28;20024;-65
2023/04/10 10:07:31;;;;;;;9.88;6.38;;;15.70;50.40;;;;;;5037093;28;20029;-65
2023/04/10 10:09:59;;;;;;;11.93;6.28;;;15.70;50.40;;;;;;5032969;28;20033;-65
2023/04/10 10:12:50;;;;;;;9.55;6.20;;;15.70;50.30;;;;;;5029358;28;20090;-67
2023/04/10 10:15:42;;;;;;;9.20;5.20;;;15.70;50.20;;;;;;5028822;28;20036;-66
2023/04/10 10:18:32;;;;;;;8.43;4.93;;;15.70;50.30;;;;;;5016094;28;20043;-65
2023/04/10 10:20:59;;;;;;;8.98;5.05;;;15.80;50.50;;;;;;5019158;28;20105;-65
2023/04/10 10:23:26;;;;;;;8.75;5.30;;;15.80;50.60;;;;;;5003736;28;20370;-65
2023/04/10 10:25:53;;;;;;;9.18;5.30;;;15.90;50.80;;;;;;5021012;28;20060;-66
2023/04/10 10:28:24;;;;;;;10.15;5.68;;;15.90;50.80;;;;;;5023203;28;20117;-66
2023/04/10 10:30:50;;;;;;;9.30;5.57;;;15.90;50.80;;;;;;5025041;28;20040;-66
2023/04/10 10:33:17;;;;;;;9.15;5.07;;;16.00;50.80;;;;;;5033036;28;20083;-66
2023/04/10 10:35:43;;;;;;;9.77;5.35;;;16.00;50.80;;;;;;5019130;28;20404;-66
2023/04/10 10:38:09;;;;;;;8.40;4.57;;;16.00;50.70;;;;;;5019831;28;20045;-66
2023/04/10 10:41:08;;;;;;;8.13;4.63;;;16.10;50.80;;;;;;5006338;28;20022;-66
2023/04/10 10:43:54;;;;;;;8.25;4.38;;;16.10;50.70;;;;;;5016797;28;20490;-66
2023/04/10 10:46:34;;;;;;;8.75;4.53;;;16.10;50.60;;;;;;5038674;28;20033;-66
2023/04/10 10:49:01;;;;;;;8.43;4.80;;;16.20;50.60;;;;;;5018196;28;20437;-66
2023/04/10 10:51:43;;;;;;;8.80;4.75;;;16.20;50.50;;;;;;5036148;28;20096;-65
2023/04/10 10:54:30;;;;;;;8.70;4.90;;;16.20;50.40;;;;;;5037826;28;20459;-66
2023/04/10 10:56:56;;;;;;;10.30;5.25;;;16.30;50.30;;;;;;5057029;28;20037;-67
2023/04/10 10:59:46;;;;;;;8.77;4.80;;;16.20;50.30;;;;;;5040939;28;20033;-66
2023/04/10 11:02:14;;;;;;;8.02;4.40;;;16.30;50.20;;;;;;5046399;28;20038;-65
2023/04/10 11:04:50;;;;;;;8.27;4.40;;;16.30;50.10;;;;;;5021936;28;20049;-65
2023/04/10 11:07:16;;;;;;;7.88;4.55;;;16.40;49.70;;;;;;5018825;28;20056;-65
2023/04/10 11:09:53;;;;;;;9.38;4.70;;;16.50;49.70;;;;;;5034343;28;20029;-64
2023/04/10 11:12:23;;;;;;;9.07;4.90;;;16.60;49.60;;;;;;5023336;28;20044;-65
2023/04/10 11:15:00;;;;;;;7.93;4.20;;;16.60;49.60;;;;;;5034275;28;20025;-64
2023/04/10 11:17:46;;;;;;;8.98;4.53;;;16.70;49.50;;;;;;5035125;28;20025;-65
2023/04/10 11:20:12;;;;;;;8.20;4.45;;;16.80;49.40;;;;;;5042245;28;20029;-65
2023/04/10 11:23:10;;;;;;;8.60;4.82;;;16.90;49.40;;;;;;5036936;28;20032;-65
2023/04/10 11:25:50;;;;;;;7.93;4.65;;;17.00;49.30;;;;;;5033547;28;20037;-65
2023/04/10 11:28:31;;;;;;;8.60;4.68;;;17.10;49.20;;;;;;5027523;28;20032;-65
2023/04/10 11:31:27;;;;;;;7.32;4.13;;;17.20;49.00;;;;;;5018170;28;20044;-64
2023/04/10 11:33:59;;;;;;;8.05;4.03;;;17.30;49.00;;;;;;5044745;28;20065;-65
2023/04/10 11:36:26;;;;;;;7.78;4.43;;;17.40;49.00;;;;;;5051279;28;20035;-65
2023/04/10 11:39:09;;;;;;;7.68;4.20;;;17.50;48.80;;;;;;5040199;28;20033;-65
2023/04/10 11:41:36;;;;;;;7.80;4.00;;;17.50;48.70;;;;;;5030174;28;20478;-65
2023/04/10 11:44:07;;;;;;;7.53;4.07;;;17.70;48.70;;;;;;5025854;28;20030;-65
2023/04/10 11:46:37;;;;;;;;;;;17.90;48.50;;;;;;5035813;28;20447;-66
2023/04/10 11:49:05;;;;;;;6.70;3.67;;;18.00;48.50;;;;;;5015253;28;19909;-66
2023/04/10 11:51:32;;;;;;;6.80;3.53;;;17.90;48.30;;;;;;5034707;28;20036;-66
2023/04/10 11:54:09;;;;;;;7.28;3.90;;;17.90;48.30;;;;;;5036451;28;20403;-66
2023/04/10 11:56:36;;;;;;;8.63;4.10;;;17.90;48.20;;;;;;5036182;28;20061;-66
2023/04/10 11:59:06;;;;;;;9.40;3.95;;;17.90;48.20;;;;;;5035861;28;20447;-65
2023/04/10 12:01:36;;;;;;;7.15;3.83;;;17.90;48.00;;;;;;5048319;28;20450;-66
2023/04/10 12:04:02;;;;;;;7.50;4.20;;;17.90;48.00;;;;;;5054806;28;20484;-65
2023/04/10 12:06:28;;;;;;;6.78;3.55;;;17.80;47.90;;;;;;5055746;28;20541;-65
2023/04/10 12:08:54;;;;;;;7.32;3.92;;;17.70;47.90;;;;;;5055811;28;20108;-65
2023/04/10 12:11:22;;;;;;;7.53;4.30;;;17.80;48.20;;;;;;5050029;28;20430;-66
2023/04/10 12:13:53;;;;;;;7.60;3.88;;;17.70;48.10;;;;;;5053298;28;20033;-67
2023/04/10 12:16:20;;;;;;;7.20;4.00;;;17.80;48.10;;;;;;5055762;28;20491;-65
2023/04/10 12:18:48;;;;;;;7.53;4.10;;;17.70;48.10;;;;;;5055602;28;20029;-65
2023/04/10 12:21:14;;;;;;;6.15;3.30;;;17.80;48.20;;;;;;5049673;28;20025;-65
2023/04/10 12:23:41;;;;;;;6.82;3.58;;;17.80;48.30;;;;;;5055621;28;20078;-65
2023/04/10 12:26:14;;;;;;;7.22;3.67;;;17.90;48.20;;;;;;5055443;28;20477;-65
2023/04/10 12:28:49;;;;;;;7.55;3.90;;;17.90;48.10;;;;;;5054559;28;20025;-65
2023/04/10 12:31:15;;;;;;;6.60;3.30;;;17.90;48.00;;;;;;5050615;28;20037;-65
2023/04/10 12:33:47;;;;;;;6.28;3.17;;;18.00;48.00;;;;;;5042288;28;20110;-65
2023/04/10 12:36:21;;;;;;;5.93;3.05;;;18.00;47.70;;;;;;5054242;28;20342;-65
2023/04/10 12:38:46;;;;;;;6.53;3.13;;;18.00;47.70;;;;;;5054374;28;20037;-65
2023/04/10 12:41:19;;;;;;;6.45;3.55;;;18.00;47.70;;;;;;5053335;28;20381;-65
2023/04/10 12:43:45;;;;;;;6.95;3.30;;;18.00;47.60;;;;;;5034819;28;20021;-66
2023/04/10 12:46:22;;;;;;;6.70;3.30;;;17.90;47.60;;;;;;5030524;28;20349;-65
2023/04/10 12:48:48;;;;;;;6.43;3.38;;;18.00;47.50;;;;;;5054321;28;20060;-65
2023/04/10 12:51:14;;;;;;;6.95;3.45;;;18.00;47.40;;;;;;5037113;28;20084;-65
2023/04/10 12:53:44;;;;;;;6.55;3.47;;;18.10;47.30;;;;;;5039782;28;20506;-65
2023/04/10 12:56:11;;;;;;;6.15;2.95;;;18.20;47.30;;;;;;5053797;28;20029;-65
2023/04/10 12:58:37;;;;;;;6.38;3.10;;;18.10;47.20;;;;;;5053685;28;20346;-65
2023/04/10 13:01:05;;;;;;;7.63;3.78;;;18.00;47.10;;;;;;5036928;28;20028;-65